sensor_id;sensor_type;location;lat;lon;timestamp;pressure;altitude;pressure_sealevel;temperature;humidity
11912;BME280;6016;41.928;25.556;2023-09-07T00:01:27;99500.34;;;23.55;72.77
11912;BME280;6016;41.928;25.556;2023-09-07T00:03:54;99502.25;;;23.55;71.42
11912;BME280;6016;41.928;25.556;2023-09-07T00:06:20;99505.75;;;23.55;70.93
11912;BME280;6016;41.928;25.556;2023-09-07T00:08:47;99495.88;;;23.42;71.27
11912;BME280;6016;41.928;25.556;2023-09-07T00:11:15;99516.09;;;23.58;71.75
11912;BME280;6016;41.928;25.556;2023-09-07T00:13:43;99510.72;;;23.58;71.88
11912;BME280;6016;41.928;25.556;2023-09-07T00:16:10;99506.34;;;23.57;71.58
11912;BME280;6016;41.928;25.556;2023-09-07T00:18:36;99487.38;;;23.45;71.48
11912;BME280;6016;41.928;25.556;2023-09-07T00:21:03;99419.41;;;23.04;71.43
11912;BME280;6016;41.928;25.556;2023-09-07T00:23:30;99412.38;;;23.03;72.44
11912;BME280;6016;41.928;25.556;2023-09-07T00:25:57;99503.06;;;23.55;71.21
11912;BME280;6016;41.928;25.556;2023-09-07T00:28:25;99478.75;;;23.30;71.45
11912;BME280;6016;41.928;25.556;2023-09-07T00:30:51;99505.97;;;23.54;71.27
11912;BME280;6016;41.928;25.556;2023-09-07T00:33:18;99505.97;;;23.54;71.50
11912;BME280;6016;41.928;25.556;2023-09-07T00:35:45;99474.38;;;23.36;72.08
11912;BME280;6016;41.928;25.556;2023-09-07T00:38:12;99416.56;;;22.93;71.85
11912;BME280;6016;41.928;25.556;2023-09-07T00:40:42;99422.75;;;22.93;72.26
11912;BME280;6016;41.928;25.556;2023-09-07T00:43:09;99490.91;;;23.46;72.30
11912;BME280;6016;41.928;25.556;2023-09-07T00:45:38;99475.00;;;23.31;72.56
11912;BME280;6016;41.928;25.556;2023-09-07T00:48:05;99499.38;;;23.43;71.06
11912;BME280;6016;41.928;25.556;2023-09-07T00:50:32;99474.19;;;23.30;71.52
11912;BME280;6016;41.928;25.556;2023-09-07T00:52:59;99490.06;;;23.45;71.53
11912;BME280;6016;41.928;25.556;2023-09-07T00:55:28;99497.31;;;23.45;71.43
11912;BME280;6016;41.928;25.556;2023-09-07T00:57:58;99497.09;;;23.46;71.67
11912;BME280;6016;41.928;25.556;2023-09-07T01:00:25;99434.31;;;23.07;71.31
11912;BME280;6016;41.928;25.556;2023-09-07T01:02:53;99332.50;;;22.45;70.72
11912;BME280;6016;41.928;25.556;2023-09-07T01:05:23;99434.09;;;23.09;70.55
11912;BME280;6016;41.928;25.556;2023-09-07T01:07:54;99481.97;;;23.45;71.30
11912;BME280;6016;41.928;25.556;2023-09-07T01:10:24;99480.34;;;23.44;70.94
11912;BME280;6016;41.928;25.556;2023-09-07T01:12:50;99480.34;;;23.44;70.30
11912;BME280;6016;41.928;25.556;2023-09-07T01:15:17;99311.22;;;22.37;69.86
11912;BME280;6016;41.928;25.556;2023-09-07T01:17:44;99276.38;;;22.10;70.37
11912;BME280;6016;41.928;25.556;2023-09-07T01:20:13;99492.16;;;23.43;71.02
11912;BME280;6016;41.928;25.556;2023-09-07T01:22:43;99476.66;;;23.25;70.99
11912;BME280;6016;41.928;25.556;2023-09-07T01:25:11;99367.66;;;22.57;70.14
11912;BME280;6016;41.928;25.556;2023-09-07T01:27:38;99494.63;;;23.38;71.55
11912;BME280;6016;41.928;25.556;2023-09-07T01:30:06;99489.50;;;23.37;71.05
11912;BME280;6016;41.928;25.556;2023-09-07T01:32:33;99494.25;;;23.35;71.21
11912;BME280;6016;41.928;25.556;2023-09-07T01:35:01;99497.16;;;23.33;71.38
11912;BME280;6016;41.928;25.556;2023-09-07T01:37:29;99494.91;;;23.30;71.00
11912;BME280;6016;41.928;25.556;2023-09-07T01:39:57;99490.31;;;23.30;70.57
11912;BME280;6016;41.928;25.556;2023-09-07T01:42:24;99495.72;;;23.30;70.44
11912;BME280;6016;41.928;25.556;2023-09-07T01:44:51;99495.50;;;23.32;70.61
11912;BME280;6016;41.928;25.556;2023-09-07T01:47:18;99487.44;;;23.32;70.73
11912;BME280;6016;41.928;25.556;2023-09-07T01:49:45;99490.13;;;23.32;70.47
11912;BME280;6016;41.928;25.556;2023-09-07T01:52:11;99378.22;;;22.52;70.36
11912;BME280;6016;41.928;25.556;2023-09-07T01:54:38;99468.00;;;23.16;70.30
11912;BME280;6016;41.928;25.556;2023-09-07T01:57:06;99450.53;;;22.87;70.20
11912;BME280;6016;41.928;25.556;2023-09-07T01:59:33;99488.06;;;23.27;70.26
11912;BME280;6016;41.928;25.556;2023-09-07T02:02:00;99488.91;;;23.28;70.55
11912;BME280;6016;41.928;25.556;2023-09-07T02:04:26;99488.06;;;23.27;70.23
11912;BME280;6016;41.928;25.556;2023-09-07T02:06:53;99362.69;;;22.47;70.07
11912;BME280;6016;41.928;25.556;2023-09-07T02:09:20;99491.78;;;23.26;70.57
11912;BME280;6016;41.928;25.556;2023-09-07T02:11:47;99483.09;;;23.24;70.36
11912;BME280;6016;41.928;25.556;2023-09-07T02:14:15;99446.19;;;22.86;70.17
11912;BME280;6016;41.928;25.556;2023-09-07T02:16:42;99365.63;;;22.32;70.34
11912;BME280;6016;41.928;25.556;2023-09-07T02:19:09;99480.59;;;23.23;70.40
11912;BME280;6016;41.928;25.556;2023-09-07T02:21:36;99476.91;;;23.17;69.89
11912;BME280;6016;41.928;25.556;2023-09-07T02:24:03;99207.06;;;21.53;70.23
11912;BME280;6016;41.928;25.556;2023-09-07T02:26:30;99480.00;;;23.21;70.27
11912;BME280;6016;41.928;25.556;2023-09-07T02:28:57;99472.13;;;23.19;70.29
11912;BME280;6016;41.928;25.556;2023-09-07T02:31:25;99483.94;;;23.18;69.81
11912;BME280;6016;41.928;25.556;2023-09-07T02:33:52;99469.91;;;23.02;70.37
11912;BME280;6016;41.928;25.556;2023-09-07T02:36:19;99482.09;;;23.12;70.11
11912;BME280;6016;41.928;25.556;2023-09-07T02:38:46;99498.25;;;23.12;70.24
11912;BME280;6016;41.928;25.556;2023-09-07T02:41:12;99492.47;;;23.08;70.18
11912;BME280;6016;41.928;25.556;2023-09-07T02:43:39;99484.38;;;23.08;70.37
11912;BME280;6016;41.928;25.556;2023-09-07T02:46:06;99441.00;;;22.84;70.32
11912;BME280;6016;41.928;25.556;2023-09-07T02:48:34;99466.03;;;22.92;70.51
11912;BME280;6016;41.928;25.556;2023-09-07T02:51:01;99412.13;;;22.59;70.44
11912;BME280;6016;41.928;25.556;2023-09-07T02:53:28;99479.63;;;23.03;70.27
11912;BME280;6016;41.928;25.556;2023-09-07T02:55:55;99480.69;;;23.02;70.29
11912;BME280;6016;41.928;25.556;2023-09-07T02:58:23;99411.31;;;22.59;69.98
11912;BME280;6016;41.928;25.556;2023-09-07T03:00:50;99442.13;;;22.56;69.72
11912;BME280;6016;41.928;25.556;2023-09-07T03:03:17;99413.59;;;22.55;70.24
11912;BME280;6016;41.928;25.556;2023-09-07T03:05:45;99461.91;;;22.82;70.42
11912;BME280;6016;41.928;25.556;2023-09-07T03:08:12;99476.38;;;22.88;70.40
11912;BME280;6016;41.928;25.556;2023-09-07T03:10:39;99441.91;;;22.65;70.21
11912;BME280;6016;41.928;25.556;2023-09-07T03:13:06;99431.16;;;22.58;70.15
11912;BME280;6016;41.928;25.556;2023-09-07T03:15:33;99472.66;;;22.89;70.24
11912;BME280;6016;41.928;25.556;2023-09-07T03:18:00;99460.09;;;22.76;69.90
11912;BME280;6016;41.928;25.556;2023-09-07T03:20:27;99461.09;;;22.88;69.83
11912;BME280;6016;41.928;25.556;2023-09-07T03:22:55;99470.16;;;22.87;69.97
11912;BME280;6016;41.928;25.556;2023-09-07T03:25:23;99467.69;;;22.86;69.96
11912;BME280;6016;41.928;25.556;2023-09-07T03:27:49;99477.00;;;22.83;69.25
11912;BME280;6016;41.928;25.556;2023-09-07T03:30:16;99470.81;;;22.83;69.15
11912;BME280;6016;41.928;25.556;2023-09-07T03:32:43;99462.13;;;22.74;69.53
11912;BME280;6016;41.928;25.556;2023-09-07T03:35:11;99433.44;;;22.34;69.66
11912;BME280;6016;41.928;25.556;2023-09-07T03:37:38;99468.97;;;22.76;69.63
11912;BME280;6016;41.928;25.556;2023-09-07T03:40:08;99458.22;;;22.63;69.56
11912;BME280;6016;41.928;25.556;2023-09-07T03:42:35;99399.53;;;22.33;69.77
11912;BME280;6016;41.928;25.556;2023-09-07T03:45:03;99479.53;;;22.78;69.61
11912;BME280;6016;41.928;25.556;2023-09-07T03:47:30;99278.28;;;21.48;69.51
11912;BME280;6016;41.928;25.556;2023-09-07T03:49:57;99477.03;;;22.76;68.90
11912;BME280;6016;41.928;25.556;2023-09-07T03:52:24;99457.81;;;22.59;69.07
11912;BME280;6016;41.928;25.556;2023-09-07T03:54:53;99396.88;;;22.19;69.13
11912;BME280;6016;41.928;25.556;2023-09-07T03:57:22;99399.97;;;22.10;69.21
11912;BME280;6016;41.928;25.556;2023-09-07T03:59:48;99490.69;;;22.75;68.94
11912;BME280;6016;41.928;25.556;2023-09-07T04:02:15;99498.34;;;22.78;69.20
11912;BME280;6016;41.928;25.556;2023-09-07T04:04:43;99491.69;;;22.81;69.13
11912;BME280;6016;41.928;25.556;2023-09-07T04:07:10;99497.28;;;22.86;68.99
11912;BME280;6016;41.928;25.556;2023-09-07T04:09:37;99391.09;;;22.23;68.63
11912;BME280;6016;41.928;25.556;2023-09-07T04:12:04;99476.84;;;22.78;68.62
11912;BME280;6016;41.928;25.556;2023-09-07T04:14:33;99494.78;;;22.91;68.19
11912;BME280;6016;41.928;25.556;2023-09-07T04:17:00;99495.84;;;22.83;68.01
11912;BME280;6016;41.928;25.556;2023-09-07T04:19:27;98779.19;;;18.41;67.84
11912;BME280;6016;41.928;25.556;2023-09-07T04:21:54;99447.28;;;22.58;67.99
11912;BME280;6016;41.928;25.556;2023-09-07T04:24:21;99495.41;;;22.93;67.77
11912;BME280;6016;41.928;25.556;2023-09-07T04:26:47;99330.75;;;21.85;67.56
11912;BME280;6016;41.928;25.556;2023-09-07T04:29:15;99436.31;;;22.46;67.76
11912;BME280;6016;41.928;25.556;2023-09-07T04:31:43;99462.78;;;22.62;67.91
11912;BME280;6016;41.928;25.556;2023-09-07T04:34:10;99503.91;;;22.83;68.08
11912;BME280;6016;41.928;25.556;2023-09-07T04:36:36;99507.63;;;22.82;68.49
11912;BME280;6016;41.928;25.556;2023-09-07T04:39:03;99503.13;;;22.76;69.20
11912;BME280;6016;41.928;25.556;2023-09-07T04:41:30;99509.13;;;22.71;69.98
11912;BME280;6016;41.928;25.556;2023-09-07T04:43:57;99386.97;;;22.00;70.33
11912;BME280;6016;41.928;25.556;2023-09-07T04:46:24;99507.66;;;22.69;70.35
11912;BME280;6016;41.928;25.556;2023-09-07T04:48:52;99518.84;;;22.72;70.04
11912;BME280;6016;41.928;25.556;2023-09-07T04:51:19;99482.66;;;22.48;70.06
11912;BME280;6016;41.928;25.556;2023-09-07T04:53:47;99510.16;;;22.70;70.76
11912;BME280;6016;41.928;25.556;2023-09-07T04:56:14;99519.44;;;22.74;70.19
11912;BME280;6016;41.928;25.556;2023-09-07T04:58:41;99519.44;;;22.74;70.27
11912;BME280;6016;41.928;25.556;2023-09-07T05:01:10;99502.72;;;22.59;70.60
11912;BME280;6016;41.928;25.556;2023-09-07T05:03:38;99506.22;;;22.66;70.63
11912;BME280;6016;41.928;25.556;2023-09-07T05:06:06;99521.09;;;22.75;70.60
11912;BME280;6016;41.928;25.556;2023-09-07T05:08:33;99398.75;;;21.99;70.70
11912;BME280;6016;41.928;25.556;2023-09-07T05:11:01;99526.47;;;22.75;70.80
11912;BME280;6016;41.928;25.556;2023-09-07T05:13:29;99518.41;;;22.82;70.87
11912;BME280;6016;41.928;25.556;2023-09-07T05:15:58;99518.81;;;22.86;70.65
11912;BME280;6016;41.928;25.556;2023-09-07T05:18:24;99519.00;;;22.84;70.54
11912;BME280;6016;41.928;25.556;2023-09-07T05:20:51;99447.69;;;22.41;70.49
11912;BME280;6016;41.928;25.556;2023-09-07T05:23:20;99514.88;;;22.88;70.31
11912;BME280;6016;41.928;25.556;2023-09-07T05:25:48;99518.59;;;22.87;70.63
11912;BME280;6016;41.928;25.556;2023-09-07T05:28:16;99519.63;;;22.86;70.72
11912;BME280;6016;41.928;25.556;2023-09-07T05:30:43;99486.56;;;22.72;70.63
11912;BME280;6016;41.928;25.556;2023-09-07T05:33:10;99468.16;;;22.62;70.78
11912;BME280;6016;41.928;25.556;2023-09-07T05:35:37;99490.69;;;22.75;70.87
11912;BME280;6016;41.928;25.556;2023-09-07T05:38:04;98986.91;;;19.65;70.90
11912;BME280;6016;41.928;25.556;2023-09-07T05:40:35;99519.16;;;23.10;71.11
11912;BME280;6016;41.928;25.556;2023-09-07T05:43:03;99527.22;;;23.16;71.94
11912;BME280;6016;41.928;25.556;2023-09-07T05:45:30;99477.00;;;22.90;71.01
11912;BME280;6016;41.928;25.556;2023-09-07T05:47:57;99528.63;;;23.26;69.75
11912;BME280;6016;41.928;25.556;2023-09-07T05:50:24;99508.56;;;23.22;70.33
11912;BME280;6016;41.928;25.556;2023-09-07T05:52:50;99427.41;;;22.72;71.10
11912;BME280;6016;41.928;25.556;2023-09-07T05:55:17;99139.22;;;20.98;70.79
11912;BME280;6016;41.928;25.556;2023-09-07T05:57:46;99525.91;;;23.46;71.08
11912;BME280;6016;41.928;25.556;2023-09-07T06:00:13;99529.19;;;23.48;71.16
11912;BME280;6016;41.928;25.556;2023-09-07T06:02:42;99516.59;;;23.42;69.32
11912;BME280;6016;41.928;25.556;2023-09-07T06:05:10;99529.78;;;23.57;69.50
11912;BME280;6016;41.928;25.556;2023-09-07T06:07:36;99522.72;;;23.63;69.15
11912;BME280;6016;41.928;25.556;2023-09-07T06:10:04;99478.06;;;23.41;68.07
11912;BME280;6016;41.928;25.556;2023-09-07T06:12:31;99525.94;;;23.78;67.56
11912;BME280;6016;41.928;25.556;2023-09-07T06:14:59;99531.50;;;23.83;67.82
11912;BME280;6016;41.928;25.556;2023-09-07T06:17:27;99532.94;;;23.86;68.24
11912;BME280;6016;41.928;25.556;2023-09-07T06:19:54;99446.91;;;23.13;67.98
11912;BME280;6016;41.928;25.556;2023-09-07T06:22:21;99528.03;;;23.76;67.97
11912;BME280;6016;41.928;25.556;2023-09-07T06:24:48;99410.31;;;22.99;67.80
11912;BME280;6016;41.928;25.556;2023-09-07T06:27:15;99525.72;;;23.80;67.78
11912;BME280;6016;41.928;25.556;2023-09-07T06:29:42;99526.72;;;23.85;67.44
11912;BME280;6016;41.928;25.556;2023-09-07T06:32:10;99354.16;;;22.77;67.05
11912;BME280;6016;41.928;25.556;2023-09-07T06:34:37;99534.97;;;23.91;66.79
11912;BME280;6016;41.928;25.556;2023-09-07T06:37:04;99532.94;;;23.86;66.82
11912;BME280;6016;41.928;25.556;2023-09-07T06:39:31;99270.97;;;22.16;66.49
11912;BME280;6016;41.928;25.556;2023-09-07T06:41:58;99542.84;;;23.92;66.61
11912;BME280;6016;41.928;25.556;2023-09-07T06:44:25;99359.72;;;22.75;66.07
11912;BME280;6016;41.928;25.556;2023-09-07T06:46:52;99544.59;;;24.12;65.53
11912;BME280;6016;41.928;25.556;2023-09-07T06:49:20;99547.31;;;24.12;65.07
11912;BME280;6016;41.928;25.556;2023-09-07T06:51:47;99545.19;;;24.21;65.63
11912;BME280;6016;41.928;25.556;2023-09-07T06:54:13;99439.63;;;23.66;64.55
11912;BME280;6016;41.928;25.556;2023-09-07T06:56:40;99529.47;;;24.11;63.74
11912;BME280;6016;41.928;25.556;2023-09-07T06:59:07;99543.16;;;24.41;62.31
11912;BME280;6016;41.928;25.556;2023-09-07T07:01:34;99517.78;;;24.24;63.34
11912;BME280;6016;41.928;25.556;2023-09-07T07:04:01;99519.09;;;24.14;62.41
11912;BME280;6016;41.928;25.556;2023-09-07T07:06:29;99554.53;;;24.43;61.75
11912;BME280;6016;41.928;25.556;2023-09-07T07:08:55;99549.31;;;24.49;62.60
11912;BME280;6016;41.928;25.556;2023-09-07T07:11:22;99547.00;;;24.78;62.15
11912;BME280;6016;41.928;25.556;2023-09-07T07:13:49;99548.69;;;24.97;61.51
11912;BME280;6016;41.928;25.556;2023-09-07T07:16:16;99555.00;;;25.10;60.53
11912;BME280;6016;41.928;25.556;2023-09-07T07:18:43;99550.78;;;25.33;59.29
11912;BME280;6016;41.928;25.556;2023-09-07T07:21:10;99547.69;;;25.48;56.31
11912;BME280;6016;41.928;25.556;2023-09-07T07:23:38;99545.84;;;25.29;56.97
11912;BME280;6016;41.928;25.556;2023-09-07T07:26:04;99543.81;;;25.06;57.92
11912;BME280;6016;41.928;25.556;2023-09-07T07:28:31;99476.00;;;24.58;58.90
11912;BME280;6016;41.928;25.556;2023-09-07T07:30:58;99553.03;;;25.17;58.77
11912;BME280;6016;41.928;25.556;2023-09-07T07:33:25;99504.81;;;24.83;58.71
11912;BME280;6016;41.928;25.556;2023-09-07T07:35:51;99549.53;;;25.54;57.25
11912;BME280;6016;41.928;25.556;2023-09-07T07:38:19;99559.47;;;25.72;56.99
11912;BME280;6016;41.928;25.556;2023-09-07T07:40:47;99548.25;;;25.87;56.08
11912;BME280;6016;41.928;25.556;2023-09-07T07:43:15;99553.34;;;25.95;54.48
11912;BME280;6016;41.928;25.556;2023-09-07T07:45:42;99512.50;;;25.73;55.44
11912;BME280;6016;41.928;25.556;2023-09-07T07:48:09;99560.66;;;26.07;53.98
11912;BME280;6016;41.928;25.556;2023-09-07T07:50:37;99537.72;;;25.97;55.47
11912;BME280;6016;41.928;25.556;2023-09-07T07:53:04;99555.69;;;26.04;54.50
11912;BME280;6016;41.928;25.556;2023-09-07T07:55:34;99567.34;;;26.04;52.88
11912;BME280;6016;41.928;25.556;2023-09-07T07:58:05;99559.44;;;26.03;53.99
11912;BME280;6016;41.928;25.556;2023-09-07T08:00:33;99555.88;;;25.90;53.95
11912;BME280;6016;41.928;25.556;2023-09-07T08:03:00;99538.91;;;25.71;53.83
11912;BME280;6016;41.928;25.556;2023-09-07T08:05:28;99553.06;;;25.85;54.10
11912;BME280;6016;41.928;25.556;2023-09-07T08:07:56;99522.88;;;25.58;54.40
11912;BME280;6016;41.928;25.556;2023-09-07T08:10:23;99555.94;;;25.72;54.47
11912;BME280;6016;41.928;25.556;2023-09-07T08:12:53;99511.19;;;25.26;53.65
11912;BME280;6016;41.928;25.556;2023-09-07T08:15:22;99548.09;;;25.51;55.11
11912;BME280;6016;41.928;25.556;2023-09-07T08:17:50;99546.66;;;25.67;54.55
11912;BME280;6016;41.928;25.556;2023-09-07T08:20:17;99550.13;;;25.87;53.01
11912;BME280;6016;41.928;25.556;2023-09-07T08:22:44;99546.66;;;25.98;54.34
11912;BME280;6016;41.928;25.556;2023-09-07T08:25:12;99539.81;;;25.95;53.87
11912;BME280;6016;41.928;25.556;2023-09-07T08:27:39;99544.84;;;25.92;54.51
11912;BME280;6016;41.928;25.556;2023-09-07T08:30:12;99543.47;;;26.01;54.43
11912;BME280;6016;41.928;25.556;2023-09-07T08:32:42;99523.81;;;25.94;53.80
11912;BME280;6016;41.928;25.556;2023-09-07T08:35:10;99520.63;;;26.27;52.99
11912;BME280;6016;41.928;25.556;2023-09-07T08:37:38;99537.81;;;26.57;52.79
11912;BME280;6016;41.928;25.556;2023-09-07T08:40:06;99449.91;;;26.12;53.34
11912;BME280;6016;41.928;25.556;2023-09-07T08:42:35;99417.22;;;26.02;52.91
11912;BME280;6016;41.928;25.556;2023-09-07T08:45:03;99492.53;;;26.64;52.40
11912;BME280;6016;41.928;25.556;2023-09-07T08:47:33;99520.78;;;26.80;52.25
11912;BME280;6016;41.928;25.556;2023-09-07T08:50:01;99516.66;;;26.90;51.91
11912;BME280;6016;41.928;25.556;2023-09-07T08:52:28;99516.91;;;26.88;51.40
11912;BME280;6016;41.928;25.556;2023-09-07T08:54:56;99471.94;;;26.63;51.94
11912;BME280;6016;41.928;25.556;2023-09-07T08:57:26;99509.00;;;26.87;51.55
11912;BME280;6016;41.928;25.556;2023-09-07T08:59:53;99509.13;;;26.92;51.56
11912;BME280;6016;41.928;25.556;2023-09-07T09:02:20;99468.75;;;26.66;51.02
11912;BME280;6016;41.928;25.556;2023-09-07T09:04:47;99503.47;;;26.93;50.80
11912;BME280;6016;41.928;25.556;2023-09-07T09:07:15;99503.34;;;26.76;50.72
11912;BME280;6016;41.928;25.556;2023-09-07T09:09:42;99491.00;;;26.68;50.73
11912;BME280;6016;41.928;25.556;2023-09-07T09:12:10;99496.41;;;26.80;51.12
11912;BME280;6016;41.928;25.556;2023-09-07T09:14:38;99480.97;;;27.05;50.86
11912;BME280;6016;41.928;25.556;2023-09-07T09:17:05;99492.94;;;27.21;49.47
11912;BME280;6016;41.928;25.556;2023-09-07T09:19:33;99447.44;;;26.82;49.57
11912;BME280;6016;41.928;25.556;2023-09-07T09:22:00;99465.44;;;27.00;50.49
11912;BME280;6016;41.928;25.556;2023-09-07T09:24:33;99467.72;;;27.20;49.36
11912;BME280;6016;41.928;25.556;2023-09-07T09:27:00;99473.56;;;27.29;49.23
11912;BME280;6016;41.928;25.556;2023-09-07T09:29:27;99476.00;;;27.43;48.71
11912;BME280;6016;41.928;25.556;2023-09-07T09:31:54;99399.66;;;27.17;48.92
11912;BME280;6016;41.928;25.556;2023-09-07T09:34:21;99431.44;;;27.21;47.37
11912;BME280;6016;41.928;25.556;2023-09-07T09:36:49;99445.41;;;27.30;47.35
11912;BME280;6016;41.928;25.556;2023-09-07T09:39:22;99445.97;;;27.44;47.83
11912;BME280;6016;41.928;25.556;2023-09-07T09:41:52;99425.22;;;27.21;47.04
11912;BME280;6016;41.928;25.556;2023-09-07T09:44:21;99462.56;;;27.48;47.27
11912;BME280;6016;41.928;25.556;2023-09-07T09:46:51;99459.75;;;27.43;47.99
11912;BME280;6016;41.928;25.556;2023-09-07T09:49:20;99458.97;;;27.30;48.22
11912;BME280;6016;41.928;25.556;2023-09-07T09:51:48;99452.66;;;27.54;48.08
11912;BME280;6016;41.928;25.556;2023-09-07T09:54:17;99403.69;;;27.43;47.70
11912;BME280;6016;41.928;25.556;2023-09-07T09:56:44;99444.81;;;27.86;48.13
11912;BME280;6016;41.928;25.556;2023-09-07T09:59:14;99448.44;;;27.92;47.34
11912;BME280;6016;41.928;25.556;2023-09-07T10:01:43;99462.75;;;28.04;46.23
11912;BME280;6016;41.928;25.556;2023-09-07T10:04:12;99417.19;;;27.89;46.79
11912;BME280;6016;41.928;25.556;2023-09-07T10:06:50;99444.81;;;28.03;47.35
11912;BME280;6016;41.928;25.556;2023-09-07T10:09:20;99435.78;;;27.98;45.86
11912;BME280;6016;41.928;25.556;2023-09-07T10:11:51;99405.25;;;27.39;46.32
11912;BME280;6016;41.928;25.556;2023-09-07T10:14:21;99418.78;;;27.39;47.38
11912;BME280;6016;41.928;25.556;2023-09-07T10:16:49;99445.38;;;27.42;47.91
11912;BME280;6016;41.928;25.556;2023-09-07T10:19:18;99446.97;;;27.26;47.55
11912;BME280;6016;41.928;25.556;2023-09-07T10:21:46;99431.88;;;27.30;47.34
11912;BME280;6016;41.928;25.556;2023-09-07T10:24:23;99404.00;;;27.01;47.57
11912;BME280;6016;41.928;25.556;2023-09-07T10:27:00;99428.72;;;27.33;47.03
11912;BME280;6016;41.928;25.556;2023-09-07T10:29:28;99416.06;;;27.39;47.12
11912;BME280;6016;41.928;25.556;2023-09-07T10:31:55;99292.00;;;26.49;47.62
11912;BME280;6016;41.928;25.556;2023-09-07T10:34:22;99425.91;;;27.57;47.59
11912;BME280;6016;41.928;25.556;2023-09-07T10:37:00;99410.41;;;27.70;46.93
11912;BME280;6016;41.928;25.556;2023-09-07T10:39:31;99381.66;;;27.39;45.22
11912;BME280;6016;41.928;25.556;2023-09-07T10:41:58;99404.31;;;27.79;46.77
11912;BME280;6016;41.928;25.556;2023-09-07T10:44:25;99408.41;;;27.99;46.29
11912;BME280;6016;41.928;25.556;2023-09-07T10:46:53;99409.00;;;28.01;46.02
11912;BME280;6016;41.928;25.556;2023-09-07T10:49:20;99406.84;;;28.03;44.28
11912;BME280;6016;41.928;25.556;2023-09-07T10:51:48;99410.91;;;28.18;44.35
11912;BME280;6016;41.928;25.556;2023-09-07T10:54:15;99430.78;;;28.24;44.25
11912;BME280;6016;41.928;25.556;2023-09-07T10:56:46;99406.75;;;27.98;43.85
11912;BME280;6016;41.928;25.556;2023-09-07T10:59:13;99402.25;;;27.87;45.19
11912;BME280;6016;41.928;25.556;2023-09-07T11:01:40;99379.56;;;27.93;44.85
11912;BME280;6016;41.928;25.556;2023-09-07T11:04:08;99395.09;;;28.15;44.59
11912;BME280;6016;41.928;25.556;2023-09-07T11:06:36;99389.75;;;28.20;44.67
11912;BME280;6016;41.928;25.556;2023-09-07T11:09:04;99387.75;;;28.15;43.63
11912;BME280;6016;41.928;25.556;2023-09-07T11:11:34;99344.66;;;27.97;43.93
11912;BME280;6016;41.928;25.556;2023-09-07T11:14:02;99401.09;;;28.34;44.41
11912;BME280;6016;41.928;25.556;2023-09-07T11:16:31;99386.50;;;28.40;42.67
11912;BME280;6016;41.928;25.556;2023-09-07T11:19:03;99366.75;;;28.45;42.25
11912;BME280;6016;41.928;25.556;2023-09-07T11:21:31;99363.16;;;28.61;42.93
11912;BME280;6016;41.928;25.556;2023-09-07T11:24:00;99377.22;;;28.58;43.21
11912;BME280;6016;41.928;25.556;2023-09-07T11:26:40;99376.63;;;28.51;43.03
11912;BME280;6016;41.928;25.556;2023-09-07T11:29:07;99354.78;;;28.41;43.39
11912;BME280;6016;41.928;25.556;2023-09-07T11:31:34;99355.09;;;28.44;43.19
11912;BME280;6016;41.928;25.556;2023-09-07T11:34:00;99364.41;;;28.54;43.55
11912;BME280;6016;41.928;25.556;2023-09-07T11:36:27;99376.97;;;28.38;42.66
11912;BME280;6016;41.928;25.556;2023-09-07T11:38:55;99369.16;;;28.41;43.48
11912;BME280;6016;41.928;25.556;2023-09-07T11:41:23;99362.66;;;28.64;43.48
11912;BME280;6016;41.928;25.556;2023-09-07T11:43:49;99366.00;;;28.72;43.90
11912;BME280;6016;41.928;25.556;2023-09-07T11:46:16;99361.84;;;28.64;41.76
11912;BME280;6016;41.928;25.556;2023-09-07T11:48:43;99348.97;;;28.54;44.28
11912;BME280;6016;41.928;25.556;2023-09-07T11:51:10;99315.13;;;28.17;42.87
11912;BME280;6016;41.928;25.556;2023-09-07T11:53:36;99357.22;;;28.42;42.69
11912;BME280;6016;41.928;25.556;2023-09-07T11:56:05;99360.06;;;28.30;43.11
11912;BME280;6016;41.928;25.556;2023-09-07T11:58:32;99342.88;;;28.25;43.81
11912;BME280;6016;41.928;25.556;2023-09-07T12:00:59;99308.84;;;27.77;44.06
11912;BME280;6016;41.928;25.556;2023-09-07T12:03:25;99349.91;;;27.86;43.04
11912;BME280;6016;41.928;25.556;2023-09-07T12:05:55;99348.78;;;27.82;43.66
11912;BME280;6016;41.928;25.556;2023-09-07T12:08:22;99334.41;;;27.64;43.11
11912;BME280;6016;41.928;25.556;2023-09-07T12:10:48;99323.06;;;27.50;43.80
11912;BME280;6016;41.928;25.556;2023-09-07T12:13:16;99342.69;;;27.58;43.72
11912;BME280;6016;41.928;25.556;2023-09-07T12:15:43;99344.84;;;27.56;44.11
11912;BME280;6016;41.928;25.556;2023-09-07T12:18:10;99349.25;;;27.45;44.12
11912;BME280;6016;41.928;25.556;2023-09-07T12:20:37;99318.59;;;27.27;44.86
11912;BME280;6016;41.928;25.556;2023-09-07T12:23:04;99345.22;;;27.47;44.98
11912;BME280;6016;41.928;25.556;2023-09-07T12:25:30;99334.69;;;27.51;43.82
11912;BME280;6016;41.928;25.556;2023-09-07T12:27:58;99341.28;;;27.72;42.92
11912;BME280;6016;41.928;25.556;2023-09-07T12:30:27;99327.00;;;27.77;44.57
11912;BME280;6016;41.928;25.556;2023-09-07T12:32:54;99326.91;;;27.89;43.85
11912;BME280;6016;41.928;25.556;2023-09-07T12:35:21;99325.81;;;28.07;43.88
11912;BME280;6016;41.928;25.556;2023-09-07T12:37:48;99324.56;;;28.32;42.77
11912;BME280;6016;41.928;25.556;2023-09-07T12:40:15;99324.78;;;28.30;43.56
11912;BME280;6016;41.928;25.556;2023-09-07T12:42:43;99299.06;;;28.16;42.36
11912;BME280;6016;41.928;25.556;2023-09-07T12:45:11;99317.97;;;28.28;42.27
11912;BME280;6016;41.928;25.556;2023-09-07T12:47:41;99297.66;;;28.30;41.70
11912;BME280;6016;41.928;25.556;2023-09-07T12:50:08;99316.09;;;28.11;42.80
11912;BME280;6016;41.928;25.556;2023-09-07T12:52:34;99337.13;;;28.21;42.30
11912;BME280;6016;41.928;25.556;2023-09-07T12:55:03;99276.19;;;27.67;42.59
11912;BME280;6016;41.928;25.556;2023-09-07T12:57:30;99328.06;;;27.93;42.76
11912;BME280;6016;41.928;25.556;2023-09-07T12:59:57;99328.56;;;27.90;42.86
11912;BME280;6016;41.928;25.556;2023-09-07T13:02:23;99328.13;;;27.98;43.40